sensor_id;sensor_type;location;lat;lon;timestamp;temperature;humidity
44565;DHT22;30275;51.822;-0.326;2022-11-15T00:00:54;9.20;99.90
44565;DHT22;30275;51.822;-0.326;2022-11-15T00:03:25;9.20;99.90
44565;DHT22;30275;51.822;-0.326;2022-11-15T00:05:51;9.20;99.90
44565;DHT22;30275;51.822;-0.326;2022-11-15T00:08:16;9.10;99.90
44565;DHT22;30275;51.822;-0.326;2022-11-15T00:10:42;9.00;99.90
44565;DHT22;30275;51.822;-0.326;2022-11-15T00:13:10;8.90;99.90
44565;DHT22;30275;51.822;-0.326;2022-11-15T00:15:37;8.80;99.90
44565;DHT22;30275;51.822;-0.326;2022-11-15T00:18:03;8.80;99.90
44565;DHT22;30275;51.822;-0.326;2022-11-15T00:20:29;8.70;99.90
44565;DHT22;30275;51.822;-0.326;2022-11-15T00:22:55;8.70;99.90
44565;DHT22;30275;51.822;-0.326;2022-11-15T00:25:20;8.70;99.90
44565;DHT22;30275;51.822;-0.326;2022-11-15T00:27:46;8.70;99.90
44565;DHT22;30275;51.822;-0.326;2022-11-15T00:30:12;8.60;99.90
44565;DHT22;30275;51.822;-0.326;2022-11-15T00:32:38;8.60;99.90
44565;DHT22;30275;51.822;-0.326;2022-11-15T00:35:03;8.60;99.90
44565;DHT22;30275;51.822;-0.326;2022-11-15T00:37:29;8.50;99.90
44565;DHT22;30275;51.822;-0.326;2022-11-15T00:39:55;8.50;99.90
44565;DHT22;30275;51.822;-0.326;2022-11-15T00:42:20;8.40;99.90
44565;DHT22;30275;51.822;-0.326;2022-11-15T00:44:46;8.40;99.90
44565;DHT22;30275;51.822;-0.326;2022-11-15T00:47:11;8.30;99.90
44565;DHT22;30275;51.822;-0.326;2022-11-15T00:49:37;8.40;99.90
44565;DHT22;30275;51.822;-0.326;2022-11-15T00:52:03;8.30;99.90
44565;DHT22;30275;51.822;-0.326;2022-11-15T00:54:28;8.20;99.90
44565;DHT22;30275;51.822;-0.326;2022-11-15T00:56:54;8.20;99.90
44565;DHT22;30275;51.822;-0.326;2022-11-15T00:59:19;8.20;99.90
44565;DHT22;30275;51.822;-0.326;2022-11-15T01:01:45;8.20;99.90
44565;DHT22;30275;51.822;-0.326;2022-11-15T01:04:11;8.20;99.90
44565;DHT22;30275;51.822;-0.326;2022-11-15T01:06:36;8.10;99.90
44565;DHT22;30275;51.822;-0.326;2022-11-15T01:09:02;8.10;99.90
44565;DHT22;30275;51.822;-0.326;2022-11-15T01:11:28;8.10;99.90
44565;DHT22;30275;51.822;-0.326;2022-11-15T01:13:55;8.00;99.90
44565;DHT22;30275;51.822;-0.326;2022-11-15T01:16:20;8.00;99.90
44565;DHT22;30275;51.822;-0.326;2022-11-15T01:18:46;8.00;99.90
44565;DHT22;30275;51.822;-0.326;2022-11-15T01:21:17;8.00;99.90
44565;DHT22;30275;51.822;-0.326;2022-11-15T01:23:43;8.00;99.90
44565;DHT22;30275;51.822;-0.326;2022-11-15T01:26:12;8.00;99.90
44565;DHT22;30275;51.822;-0.326;2022-11-15T01:28:39;8.00;99.90
44565;DHT22;30275;51.822;-0.326;2022-11-15T01:31:11;8.00;99.90
44565;DHT22;30275;51.822;-0.326;2022-11-15T01:33:37;8.00;99.90
44565;DHT22;30275;51.822;-0.326;2022-11-15T01:36:29;8.00;99.90
44565;DHT22;30275;51.822;-0.326;2022-11-15T01:38:56;8.00;99.90
44565;DHT22;30275;51.822;-0.326;2022-11-15T01:41:28;8.00;99.90
44565;DHT22;30275;51.822;-0.326;2022-11-15T01:43:57;8.00;99.90
44565;DHT22;30275;51.822;-0.326;2022-11-15T01:46:34;8.10;99.90
44565;DHT22;30275;51.822;-0.326;2022-11-15T01:49:06;8.10;99.90
44565;DHT22;30275;51.822;-0.326;2022-11-15T01:51:37;8.20;99.90
44565;DHT22;30275;51.822;-0.326;2022-11-15T01:54:09;8.10;99.90
44565;DHT22;30275;51.822;-0.326;2022-11-15T01:56:43;8.10;99.90
44565;DHT22;30275;51.822;-0.326;2022-11-15T01:59:11;8.10;99.90
44565;DHT22;30275;51.822;-0.326;2022-11-15T02:01:37;8.10;99.90
44565;DHT22;30275;51.822;-0.326;2022-11-15T02:04:20;8.00;99.90
44565;DHT22;30275;51.822;-0.326;2022-11-15T02:06:47;8.00;99.90
44565;DHT22;30275;51.822;-0.326;2022-11-15T02:09:14;8.00;99.90
44565;DHT22;30275;51.822;-0.326;2022-11-15T02:11:39;8.00;99.90
44565;DHT22;30275;51.822;-0.326;2022-11-15T02:14:07;8.00;99.90
44565;DHT22;30275;51.822;-0.326;2022-11-15T02:19:20;7.90;99.90
44565;DHT22;30275;51.822;-0.326;2022-11-15T02:32:54;7.90;99.90
44565;DHT22;30275;51.822;-0.326;2022-11-15T02:37:59;7.80;99.90
44565;DHT22;30275;51.822;-0.326;2022-11-15T02:43:12;7.80;99.90
44565;DHT22;30275;51.822;-0.326;2022-11-15T02:46:03;7.80;99.90
44565;DHT22;30275;51.822;-0.326;2022-11-15T02:48:32;7.80;99.90
44565;DHT22;30275;51.822;-0.326;2022-11-15T02:50:59;7.80;99.90
44565;DHT22;30275;51.822;-0.326;2022-11-15T02:53:26;7.80;99.90
44565;DHT22;30275;51.822;-0.326;2022-11-15T02:55:53;7.90;99.90
44565;DHT22;30275;51.822;-0.326;2022-11-15T03:01:27;7.90;99.90
44565;DHT22;30275;51.822;-0.326;2022-11-15T03:04:22;8.00;99.90
44565;DHT22;30275;51.822;-0.326;2022-11-15T03:10:09;8.10;99.90
44565;DHT22;30275;51.822;-0.326;2022-11-15T03:15:31;8.10;99.90
44565;DHT22;30275;51.822;-0.326;2022-11-15T03:18:34;8.20;99.90
44565;DHT22;30275;51.822;-0.326;2022-11-15T03:21:04;8.20;99.90
44565;DHT22;30275;51.822;-0.326;2022-11-15T03:23:31;8.20;99.90
44565;DHT22;30275;51.822;-0.326;2022-11-15T03:25:59;8.20;99.90
44565;DHT22;30275;51.822;-0.326;2022-11-15T03:29:17;8.30;99.90
44565;DHT22;30275;51.822;-0.326;2022-11-15T03:31:18;8.40;99.90
44565;DHT22;30275;51.822;-0.326;2022-11-15T03:34:06;8.40;99.90
44565;DHT22;30275;51.822;-0.326;2022-11-15T03:36:33;8.50;99.90
44565;DHT22;30275;51.822;-0.326;2022-11-15T03:39:02;8.60;99.90
44565;DHT22;30275;51.822;-0.326;2022-11-15T03:41:38;8.70;99.90
44565;DHT22;30275;51.822;-0.326;2022-11-15T03:44:23;8.70;99.90
44565;DHT22;30275;51.822;-0.326;2022-11-15T03:49:32;8.80;99.90
44565;DHT22;30275;51.822;-0.326;2022-11-15T03:52:00;8.90;99.90
44565;DHT22;30275;51.822;-0.326;2022-11-15T03:54:27;8.90;99.90
44565;DHT22;30275;51.822;-0.326;2022-11-15T03:56:52;9.00;99.90
44565;DHT22;30275;51.822;-0.326;2022-11-15T03:59:18;9.10;99.90
44565;DHT22;30275;51.822;-0.326;2022-11-15T04:01:43;9.00;99.90
44565;DHT22;30275;51.822;-0.326;2022-11-15T04:04:09;9.10;99.90
44565;DHT22;30275;51.822;-0.326;2022-11-15T04:06:35;9.20;99.90
44565;DHT22;30275;51.822;-0.326;2022-11-15T04:09:00;9.30;99.90
44565;DHT22;30275;51.822;-0.326;2022-11-15T04:11:26;9.30;99.90
44565;DHT22;30275;51.822;-0.326;2022-11-15T04:13:52;9.30;99.90
44565;DHT22;30275;51.822;-0.326;2022-11-15T04:16:17;9.30;99.90
44565;DHT22;30275;51.822;-0.326;2022-11-15T04:18:43;9.40;99.90
44565;DHT22;30275;51.822;-0.326;2022-11-15T04:21:09;9.40;99.90
44565;DHT22;30275;51.822;-0.326;2022-11-15T04:23:53;9.50;99.90
44565;DHT22;30275;51.822;-0.326;2022-11-15T04:26:30;9.60;99.90
44565;DHT22;30275;51.822;-0.326;2022-11-15T04:28:56;9.70;99.90
44565;DHT22;30275;51.822;-0.326;2022-11-15T04:31:40;9.80;99.90
44565;DHT22;30275;51.822;-0.326;2022-11-15T04:34:07;9.90;99.90
44565;DHT22;30275;51.822;-0.326;2022-11-15T04:36:32;10.00;99.90
44565;DHT22;30275;51.822;-0.326;2022-11-15T04:39:17;10.10;99.90
44565;DHT22;30275;51.822;-0.326;2022-11-15T04:41:42;10.10;99.90
44565;DHT22;30275;51.822;-0.326;2022-11-15T04:44:08;10.10;99.90
44565;DHT22;30275;51.822;-0.326;2022-11-15T04:46:34;10.20;99.90
44565;DHT22;30275;51.822;-0.326;2022-11-15T04:49:00;10.30;99.90
44565;DHT22;30275;51.822;-0.326;2022-11-15T04:51:26;10.20;99.90
44565;DHT22;30275;51.822;-0.326;2022-11-15T04:53:51;10.30;99.90
44565;DHT22;30275;51.822;-0.326;2022-11-15T04:56:17;10.20;99.90
44565;DHT22;30275;51.822;-0.326;2022-11-15T04:58:43;10.20;99.90
44565;DHT22;30275;51.822;-0.326;2022-11-15T05:01:13;10.20;99.90
44565;DHT22;30275;51.822;-0.326;2022-11-15T05:03:42;10.20;99.90
44565;DHT22;30275;51.822;-0.326;2022-11-15T05:06:27;10.20;99.90
44565;DHT22;30275;51.822;-0.326;2022-11-15T05:08:53;10.20;99.90
44565;DHT22;30275;51.822;-0.326;2022-11-15T05:11:18;10.10;99.90
44565;DHT22;30275;51.822;-0.326;2022-11-15T05:13:45;10.10;99.90
44565;DHT22;30275;51.822;-0.326;2022-11-15T05:16:11;10.10;99.90
44565;DHT22;30275;51.822;-0.326;2022-11-15T05:18:37;10.10;99.90
44565;DHT22;30275;51.822;-0.326;2022-11-15T05:21:07;10.00;99.90
44565;DHT22;30275;51.822;-0.326;2022-11-15T05:23:33;10.00;99.90
44565;DHT22;30275;51.822;-0.326;2022-11-15T05:26:03;10.00;99.90
44565;DHT22;30275;51.822;-0.326;2022-11-15T05:28:30;10.00;99.90
44565;DHT22;30275;51.822;-0.326;2022-11-15T05:31:03;10.10;99.90
44565;DHT22;30275;51.822;-0.326;2022-11-15T05:33:29;10.00;99.90
44565;DHT22;30275;51.822;-0.326;2022-11-15T05:36:07;10.00;99.90
44565;DHT22;30275;51.822;-0.326;2022-11-15T05:38:33;10.00;99.90
44565;DHT22;30275;51.822;-0.326;2022-11-15T05:41:03;9.90;99.90
44565;DHT22;30275;51.822;-0.326;2022-11-15T05:43:31;10.00;99.90
44565;DHT22;30275;51.822;-0.326;2022-11-15T05:45:59;10.00;99.90
44565;DHT22;30275;51.822;-0.326;2022-11-15T05:48:26;9.90;99.90
44565;DHT22;30275;51.822;-0.326;2022-11-15T05:50:52;9.90;99.90
44565;DHT22;30275;51.822;-0.326;2022-11-15T05:53:19;9.90;99.90
44565;DHT22;30275;51.822;-0.326;2022-11-15T05:55:46;9.90;99.90
44565;DHT22;30275;51.822;-0.326;2022-11-15T05:58:12;9.90;99.90
44565;DHT22;30275;51.822;-0.326;2022-11-15T06:00:38;9.90;99.90
44565;DHT22;30275;51.822;-0.326;2022-11-15T06:03:04;9.90;99.90
44565;DHT22;30275;51.822;-0.326;2022-11-15T06:05:30;9.90;99.90
44565;DHT22;30275;51.822;-0.326;2022-11-15T06:07:58;9.90;99.90
44565;DHT22;30275;51.822;-0.326;2022-11-15T06:10:24;9.90;99.90
44565;DHT22;30275;51.822;-0.326;2022-11-15T06:13:01;9.90;99.90
44565;DHT22;30275;51.822;-0.326;2022-11-15T06:15:27;9.80;99.90
44565;DHT22;30275;51.822;-0.326;2022-11-15T06:17:56;9.80;99.90
44565;DHT22;30275;51.822;-0.326;2022-11-15T06:20:23;9.80;99.90
44565;DHT22;30275;51.822;-0.326;2022-11-15T06:22:49;9.80;99.90
44565;DHT22;30275;51.822;-0.326;2022-11-15T06:25:15;9.80;99.90
44565;DHT22;30275;51.822;-0.326;2022-11-15T06:27:40;9.90;99.90
44565;DHT22;30275;51.822;-0.326;2022-11-15T06:30:06;9.90;99.90
44565;DHT22;30275;51.822;-0.326;2022-11-15T06:32:32;10.00;99.90
44565;DHT22;30275;51.822;-0.326;2022-11-15T06:34:58;10.00;99.90
44565;DHT22;30275;51.822;-0.326;2022-11-15T06:37:23;10.00;99.90
44565;DHT22;30275;51.822;-0.326;2022-11-15T06:39:49;9.90;99.90
44565;DHT22;30275;51.822;-0.326;2022-11-15T06:42:14;9.90;99.90
44565;DHT22;30275;51.822;-0.326;2022-11-15T06:44:40;9.90;99.90
44565;DHT22;30275;51.822;-0.326;2022-11-15T06:47:05;10.00;99.90
44565;DHT22;30275;51.822;-0.326;2022-11-15T06:49:31;10.00;99.90
44565;DHT22;30275;51.822;-0.326;2022-11-15T06:51:57;10.00;99.90
44565;DHT22;30275;51.822;-0.326;2022-11-15T06:54:22;10.00;99.90
44565;DHT22;30275;51.822;-0.326;2022-11-15T06:56:48;10.00;99.90
44565;DHT22;30275;51.822;-0.326;2022-11-15T06:59:13;10.00;99.90
44565;DHT22;30275;51.822;-0.326;2022-11-15T07:01:39;10.10;99.90
44565;DHT22;30275;51.822;-0.326;2022-11-15T07:04:05;10.10;99.90
44565;DHT22;30275;51.822;-0.326;2022-11-15T07:06:31;10.10;99.90
44565;DHT22;30275;51.822;-0.326;2022-11-15T07:08:56;10.20;99.90
44565;DHT22;30275;51.822;-0.326;2022-11-15T07:11:22;10.20;99.90
44565;DHT22;30275;51.822;-0.326;2022-11-15T07:13:47;10.30;99.90
44565;DHT22;30275;51.822;-0.326;2022-11-15T07:16:13;10.30;99.90
44565;DHT22;30275;51.822;-0.326;2022-11-15T07:18:40;10.30;99.90
44565;DHT22;30275;51.822;-0.326;2022-11-15T07:21:09;10.40;99.90
44565;DHT22;30275;51.822;-0.326;2022-11-15T07:23:37;10.40;99.90
44565;DHT22;30275;51.822;-0.326;2022-11-15T07:26:06;10.40;99.90
44565;DHT22;30275;51.822;-0.326;2022-11-15T07:28:32;10.40;99.90
44565;DHT22;30275;51.822;-0.326;2022-11-15T07:31:05;10.40;99.90
44565;DHT22;30275;51.822;-0.326;2022-11-15T07:33:34;10.40;99.90
44565;DHT22;30275;51.822;-0.326;2022-11-15T07:36:04;10.40;99.90
44565;DHT22;30275;51.822;-0.326;2022-11-15T07:38:33;10.40;99.90
44565;DHT22;30275;51.822;-0.326;2022-11-15T07:41:01;10.40;99.90
44565;DHT22;30275;51.822;-0.326;2022-11-15T07:43:28;10.40;99.90
44565;DHT22;30275;51.822;-0.326;2022-11-15T07:45:55;10.40;99.90
44565;DHT22;30275;51.822;-0.326;2022-11-15T07:48:21;10.50;99.90
44565;DHT22;30275;51.822;-0.326;2022-11-15T07:50:47;10.40;99.90
44565;DHT22;30275;51.822;-0.326;2022-11-15T07:53:12;10.50;99.90
44565;DHT22;30275;51.822;-0.326;2022-11-15T07:55:40;10.50;99.90
44565;DHT22;30275;51.822;-0.326;2022-11-15T07:58:09;10.50;99.90
44565;DHT22;30275;51.822;-0.326;2022-11-15T08:00:35;10.50;99.90
44565;DHT22;30275;51.822;-0.326;2022-11-15T08:03:06;10.50;99.90
44565;DHT22;30275;51.822;-0.326;2022-11-15T08:05:33;10.50;99.90
44565;DHT22;30275;51.822;-0.326;2022-11-15T08:07:59;10.50;99.90
44565;DHT22;30275;51.822;-0.326;2022-11-15T08:10:25;10.50;99.90
44565;DHT22;30275;51.822;-0.326;2022-11-15T08:13:05;10.50;99.90
44565;DHT22;30275;51.822;-0.326;2022-11-15T08:15:32;10.50;99.90
44565;DHT22;30275;51.822;-0.326;2022-11-15T08:18:00;10.50;99.90
44565;DHT22;30275;51.822;-0.326;2022-11-15T08:20:27;10.50;99.90
44565;DHT22;30275;51.822;-0.326;2022-11-15T08:23:00;10.50;99.90
44565;DHT22;30275;51.822;-0.326;2022-11-15T08:25:26;10.50;99.90
44565;DHT22;30275;51.822;-0.326;2022-11-15T08:27:54;10.50;99.90
44565;DHT22;30275;51.822;-0.326;2022-11-15T08:30:20;10.50;99.90
44565;DHT22;30275;51.822;-0.326;2022-11-15T08:32:46;10.50;99.90
44565;DHT22;30275;51.822;-0.326;2022-11-15T08:35:11;10.50;99.90
44565;DHT22;30275;51.822;-0.326;2022-11-15T08:37:37;10.50;99.90
44565;DHT22;30275;51.822;-0.326;2022-11-15T08:40:03;10.50;99.90
44565;DHT22;30275;51.822;-0.326;2022-11-15T08:42:29;10.50;99.90
44565;DHT22;30275;51.822;-0.326;2022-11-15T08:44:55;10.50;99.90
44565;DHT22;30275;51.822;-0.326;2022-11-15T08:47:21;10.60;99.90
44565;DHT22;30275;51.822;-0.326;2022-11-15T08:49:46;10.60;99.90
44565;DHT22;30275;51.822;-0.326;2022-11-15T08:52:12;10.60;99.90
44565;DHT22;30275;51.822;-0.326;2022-11-15T08:54:38;10.60;99.90
44565;DHT22;30275;51.822;-0.326;2022-11-15T08:57:04;10.60;99.90
44565;DHT22;30275;51.822;-0.326;2022-11-15T08:59:30;10.60;99.90
44565;DHT22;30275;51.822;-0.326;2022-11-15T09:01:55;10.60;99.90
44565;DHT22;30275;51.822;-0.326;2022-11-15T09:04:21;10.70;99.90
44565;DHT22;30275;51.822;-0.326;2022-11-15T09:06:46;10.70;99.90
44565;DHT22;30275;51.822;-0.326;2022-11-15T09:09:12;10.70;99.90
44565;DHT22;30275;51.822;-0.326;2022-11-15T09:11:37;10.70;99.90
44565;DHT22;30275;51.822;-0.326;2022-11-15T09:14:03;10.70;99.90
44565;DHT22;30275;51.822;-0.326;2022-11-15T09:16:30;10.80;99.90
44565;DHT22;30275;51.822;-0.326;2022-11-15T09:18:56;10.70;99.90
44565;DHT22;30275;51.822;-0.326;2022-11-15T09:21:22;10.80;99.90
44565;DHT22;30275;51.822;-0.326;2022-11-15T09:23:50;10.80;99.90
44565;DHT22;30275;51.822;-0.326;2022-11-15T09:26:17;10.80;99.90
44565;DHT22;30275;51.822;-0.326;2022-11-15T09:28:43;10.90;99.90
44565;DHT22;30275;51.822;-0.326;2022-11-15T09:31:09;10.80;99.90
44565;DHT22;30275;51.822;-0.326;2022-11-15T09:33:35;10.80;99.90
44565;DHT22;30275;51.822;-0.326;2022-11-15T09:36:02;10.90;99.90
44565;DHT22;30275;51.822;-0.326;2022-11-15T09:38:29;10.90;99.90
44565;DHT22;30275;51.822;-0.326;2022-11-15T09:41:21;10.90;99.90
44565;DHT22;30275;51.822;-0.326;2022-11-15T09:46:37;10.90;99.90
44565;DHT22;30275;51.822;-0.326;2022-11-15T09:49:09;10.90;99.90
44565;DHT22;30275;51.822;-0.326;2022-11-15T09:51:39;11.00;99.90
44565;DHT22;30275;51.822;-0.326;2022-11-15T09:56:46;11.00;99.90
44565;DHT22;30275;51.822;-0.326;2022-11-15T10:04:48;11.00;99.90
44565;DHT22;30275;51.822;-0.326;2022-11-15T10:10:16;11.00;99.90
44565;DHT22;30275;51.822;-0.326;2022-11-15T10:12:48;11.00;99.90
44565;DHT22;30275;51.822;-0.326;2022-11-15T10:15:18;11.10;99.90
44565;DHT22;30275;51.822;-0.326;2022-11-15T10:20:30;11.10;99.90
44565;DHT22;30275;51.822;-0.326;2022-11-15T10:23:05;11.10;99.90
44565;DHT22;30275;51.822;-0.326;2022-11-15T10:25:33;11.20;99.90
44565;DHT22;30275;51.822;-0.326;2022-11-15T10:28:06;11.10;99.90
44565;DHT22;30275;51.822;-0.326;2022-11-15T10:30:40;11.10;99.90
44565;DHT22;30275;51.822;-0.326;2022-11-15T10:46:31;11.30;99.90
44565;DHT22;30275;51.822;-0.326;2022-11-15T10:49:18;11.30;99.90
44565;DHT22;30275;51.822;-0.326;2022-11-15T10:54:12;11.30;99.90
44565;DHT22;30275;51.822;-0.326;2022-11-15T10:56:40;11.40;99.90
44565;DHT22;30275;51.822;-0.326;2022-11-15T10:59:16;11.30;99.90
44565;DHT22;30275;51.822;-0.326;2022-11-15T11:01:46;11.30;99.90
44565;DHT22;30275;51.822;-0.326;2022-11-15T11:04:12;11.40;99.90
44565;DHT22;30275;51.822;-0.326;2022-11-15T11:09:56;11.40;99.90
44565;DHT22;30275;51.822;-0.326;2022-11-15T11:12:28;11.40;99.90
44565;DHT22;30275;51.822;-0.326;2022-11-15T11:14:55;11.40;99.90
44565;DHT22;30275;51.822;-0.326;2022-11-15T11:20:10;11.50;99.90
44565;DHT22;30275;51.822;-0.326;2022-11-15T11:33:49;11.50;99.90
44565;DHT22;30275;51.822;-0.326;2022-11-15T11:41:52;11.60;99.90
44565;DHT22;30275;51.822;-0.326;2022-11-15T11:44:37;11.60;99.90
44565;DHT22;30275;51.822;-0.326;2022-11-15T11:47:18;11.50;99.90
44565;DHT22;30275;51.822;-0.326;2022-11-15T11:49:55;11.60;99.90
44565;DHT22;30275;51.822;-0.326;2022-11-15T11:52:34;11.60;99.90
44565;DHT22;30275;51.822;-0.326;2022-11-15T11:57:44;11.60;99.90
44565;DHT22;30275;51.822;-0.326;2022-11-15T12:00:21;11.60;99.90
44565;DHT22;30275;51.822;-0.326;2022-11-15T12:03:00;11.60;99.90
44565;DHT22;30275;51.822;-0.326;2022-11-15T12:05:35;11.60;99.90
44565;DHT22;30275;51.822;-0.326;2022-11-15T12:08:22;11.60;99.90
44565;DHT22;30275;51.822;-0.326;2022-11-15T12:10:54;11.50;99.90
44565;DHT22;30275;51.822;-0.326;2022-11-15T12:13:26;11.60;99.90
44565;DHT22;30275;51.822;-0.326;2022-11-15T12:16:22;11.60;99.90
44565;DHT22;30275;51.822;-0.326;2022-11-15T12:18:51;11.60;99.90
44565;DHT22;30275;51.822;-0.326;2022-11-15T12:23:58;11.60;99.90
44565;DHT22;30275;51.822;-0.326;2022-11-15T12:26:28;11.70;99.90
44565;DHT22;30275;51.822;-0.326;2022-11-15T12:28:59;11.60;99.90
44565;DHT22;30275;51.822;-0.326;2022-11-15T12:31:36;11.60;99.90
44565;DHT22;30275;51.822;-0.326;2022-11-15T12:34:50;11.70;99.90
44565;DHT22;30275;51.822;-0.326;2022-11-15T12:36:51;11.70;99.90
44565;DHT22;30275;51.822;-0.326;2022-11-15T12:39:18;11.60;99.90
44565;DHT22;30275;51.822;-0.326;2022-11-15T13:02:39;11.80;99.90
44565;DHT22;30275;51.822;-0.326;2022-11-15T13:17:51;12.00;99.90
44565;DHT22;30275;51.822;-0.326;2022-11-15T13:20:21;12.00;99.90
44565;DHT22;30275;51.822;-0.326;2022-11-15T13:26:03;12.00;99.90
44565;DHT22;30275;51.822;-0.326;2022-11-15T13:33:53;12.20;99.90
44565;DHT22;30275;51.822;-0.326;2022-11-15T13:36:24;12.30;99.90
44565;DHT22;30275;51.822;-0.326;2022-11-15T13:39:14;12.40;99.90
44565;DHT22;30275;51.822;-0.326;2022-11-15T13:41:50;12.70;99.90
44565;DHT22;30275;51.822;-0.326;2022-11-15T13:44:26;12.80;99.90
44565;DHT22;30275;51.822;-0.326;2022-11-15T13:47:15;12.90;99.90
44565;DHT22;30275;51.822;-0.326;2022-11-15T13:49:41;13.00;99.90
44565;DHT22;30275;51.822;-0.326;2022-11-15T13:52:13;12.90;99.90
44565;DHT22;30275;51.822;-0.326;2022-11-15T13:55:02;12.90;99.90
44565;DHT22;30275;51.822;-0.326;2022-11-15T13:57:53;12.90;99.90
44565;DHT22;30275;51.822;-0.326;2022-11-15T14:00:40;13.00;99.90
44565;DHT22;30275;51.822;-0.326;2022-11-15T14:03:16;13.10;99.90
44565;DHT22;30275;51.822;-0.326;2022-11-15T14:05:47;13.10;99.90
44565;DHT22;30275;51.822;-0.326;2022-11-15T14:08:26;13.10;99.90
44565;DHT22;30275;51.822;-0.326;2022-11-15T14:11:15;13.10;99.90
44565;DHT22;30275;51.822;-0.326;2022-11-15T14:13:42;13.20;99.90
44565;DHT22;30275;51.822;-0.326;2022-11-15T14:16:24;13.30;99.90
44565;DHT22;30275;51.822;-0.326;2022-11-15T14:18:57;13.10;99.90
44565;DHT22;30275;51.822;-0.326;2022-11-15T14:21:23;13.00;99.90
44565;DHT22;30275;51.822;-0.326;2022-11-15T14:23:48;12.90;99.90
44565;DHT22;30275;51.822;-0.326;2022-11-15T14:26:34;12.90;99.90
44565;DHT22;30275;51.822;-0.326;2022-11-15T14:29:23;12.70;99.90
44565;DHT22;30275;51.822;-0.326;2022-11-15T14:31:49;12.60;99.90
44565;DHT22;30275;51.822;-0.326;2022-11-15T14:34:15;12.60;99.90
44565;DHT22;30275;51.822;-0.326;2022-11-15T14:36:41;12.60;99.90
44565;DHT22;30275;51.822;-0.326;2022-11-15T14:39:07;12.70;99.90
44565;DHT22;30275;51.822;-0.326;2022-11-15T14:41:35;12.60;99.90
44565;DHT22;30275;51.822;-0.326;2022-11-15T14:44:04;12.50;99.90
44565;DHT22;30275;51.822;-0.326;2022-11-15T14:46:30;12.50;99.90
44565;DHT22;30275;51.822;-0.326;2022-11-15T14:48:56;12.50;99.90
44565;DHT22;30275;51.822;-0.326;2022-11-15T14:51:22;12.50;99.90
44565;DHT22;30275;51.822;-0.326;2022-11-15T14:53:47;12.50;99.90
44565;DHT22;30275;51.822;-0.326;2022-11-15T14:56:14;12.50;99.90
44565;DHT22;30275;51.822;-0.326;2022-11-15T14:58:40;12.40;99.90
44565;DHT22;30275;51.822;-0.326;2022-11-15T15:01:22;12.50;99.90
44565;DHT22;30275;51.822;-0.326;2022-11-15T15:03:51;12.60;99.90
44565;DHT22;30275;51.822;-0.326;2022-11-15T15:06:18;12.60;99.90
44565;DHT22;30275;51.822;-0.326;2022-11-15T15:08:44;12.60;99.90
44565;DHT22;30275;51.822;-0.326;2022-11-15T15:11:16;12.70;99.90
44565;DHT22;30275;51.822;-0.326;2022-11-15T15:13:44;12.70;99.90
44565;DHT22;30275;51.822;-0.326;2022-11-15T15:16:10;12.50;99.90
44565;DHT22;30275;51.822;-0.326;2022-11-15T15:18:35;12.40;99.90
44565;DHT22;30275;51.822;-0.326;2022-11-15T15:21:02;12.30;99.90
44565;DHT22;30275;51.822;-0.326;2022-11-15T15:23:32;12.30;99.90
44565;DHT22;30275;51.822;-0.326;2022-11-15T15:25:58;12.30;99.90
44565;DHT22;30275;51.822;-0.326;2022-11-15T15:28:24;12.20;99.90
44565;DHT22;30275;51.822;-0.326;2022-11-15T15:30:50;12.20;99.90
44565;DHT22;30275;51.822;-0.326;2022-11-15T15:33:15;12.20;99.90
44565;DHT22;30275;51.822;-0.326;2022-11-15T15:35:41;12.10;99.90
44565;DHT22;30275;51.822;-0.326;2022-11-15T15:38:11;12.10;99.90
44565;DHT22;30275;51.822;-0.326;2022-11-15T15:40:37;12.10;99.90
44565;DHT22;30275;51.822;-0.326;2022-11-15T15:43:03;12.00;99.90
44565;DHT22;30275;51.822;-0.326;2022-11-15T15:45:28;12.00;99.90
44565;DHT22;30275;51.822;-0.326;2022-11-15T15:47:55;12.00;99.90
44565;DHT22;30275;51.822;-0.326;2022-11-15T15:50:26;11.90;99.90
44565;DHT22;30275;51.822;-0.326;2022-11-15T15:52:54;11.80;99.90
44565;DHT22;30275;51.822;-0.326;2022-11-15T15:55:21;11.60;99.90
44565;DHT22;30275;51.822;-0.326;2022-11-15T15:57:47;11.50;99.90
44565;DHT22;30275;51.822;-0.326;2022-11-15T16:00:13;11.40;99.90
44565;DHT22;30275;51.822;-0.326;2022-11-15T16:02:40;11.30;99.90
44565;DHT22;30275;51.822;-0.326;2022-11-15T16:05:06;11.30;99.90
44565;DHT22;30275;51.822;-0.326;2022-11-15T16:07:32;11.20;99.90
44565;DHT22;30275;51.822;-0.326;2022-11-15T16:10:20;11.20;99.90
44565;DHT22;30275;51.822;-0.326;2022-11-15T16:13:21;11.10;99.90
44565;DHT22;30275;51.822;-0.326;2022-11-15T16:15:57;11.00;99.90
44565;DHT22;30275;51.822;-0.326;2022-11-15T16:18:45;10.80;99.90
44565;DHT22;30275;51.822;-0.326;2022-11-15T16:21:13;10.70;99.90
44565;DHT22;30275;51.822;-0.326;2022-11-15T16:23:40;10.60;99.90
44565;DHT22;30275;51.822;-0.326;2022-11-15T16:26:24;10.60;99.90
44565;DHT22;30275;51.822;-0.326;2022-11-15T16:28:50;10.50;99.90
44565;DHT22;30275;51.822;-0.326;2022-11-15T16:31:16;10.50;99.90
44565;DHT22;30275;51.822;-0.326;2022-11-15T16:33:57;10.40;99.90
44565;DHT22;30275;51.822;-0.326;2022-11-15T16:36:25;10.50;99.90
44565;DHT22;30275;51.822;-0.326;2022-11-15T16:38:51;10.40;99.90
44565;DHT22;30275;51.822;-0.326;2022-11-15T16:41:18;10.50;99.90
44565;DHT22;30275;51.822;-0.326;2022-11-15T16:43:49;10.50;99.90
44565;DHT22;30275;51.822;-0.326;2022-11-15T16:46:22;10.50;99.90
44565;DHT22;30275;51.822;-0.326;2022-11-15T16:48:48;10.50;99.90
44565;DHT22;30275;51.822;-0.326;2022-11-15T16:51:14;10.50;99.90
44565;DHT22;30275;51.822;-0.326;2022-11-15T16:53:40;10.70;99.90
44565;DHT22;30275;51.822;-0.326;2022-11-15T16:58:47;10.80;99.90
44565;DHT22;30275;51.822;-0.326;2022-11-15T17:01:22;10.70;99.90
44565;DHT22;30275;51.822;-0.326;2022-11-15T17:03:48;10.70;99.90
44565;DHT22;30275;51.822;-0.326;2022-11-15T17:06:14;10.80;99.90
44565;DHT22;30275;51.822;-0.326;2022-11-15T17:08:40;10.90;99.90
44565;DHT22;30275;51.822;-0.326;2022-11-15T17:11:07;10.90;99.90
44565;DHT22;30275;51.822;-0.326;2022-11-15T17:13:44;11.00;99.90
44565;DHT22;30275;51.822;-0.326;2022-11-15T17:16:16;10.90;99.90
44565;DHT22;30275;51.822;-0.326;2022-11-15T17:18:43;10.90;99.90
44565;DHT22;30275;51.822;-0.326;2022-11-15T17:25:24;10.60;99.90
44565;DHT22;30275;51.822;-0.326;2022-11-15T17:27:50;10.50;99.90
44565;DHT22;30275;51.822;-0.326;2022-11-15T17:30:47;10.50;99.90
44565;DHT22;30275;51.822;-0.326;2022-11-15T17:33:13;10.50;99.90
44565;DHT22;30275;51.822;-0.326;2022-11-15T17:39:08;10.40;99.90
44565;DHT22;30275;51.822;-0.326;2022-11-15T17:41:35;10.50;99.90
44565;DHT22;30275;51.822;-0.326;2022-11-15T17:44:00;10.40;99.90
44565;DHT22;30275;51.822;-0.326;2022-11-15T17:46:29;10.40;99.90
44565;DHT22;30275;51.822;-0.326;2022-11-15T17:49:06;10.40;99.90
44565;DHT22;30275;51.822;-0.326;2022-11-15T17:51:37;10.40;99.90
44565;DHT22;30275;51.822;-0.326;2022-11-15T17:54:03;10.40;99.90
44565;DHT22;30275;51.822;-0.326;2022-11-15T17:56:29;10.40;99.90
44565;DHT22;30275;51.822;-0.326;2022-11-15T17:58:59;10.40;99.90